sensor_id;sensor_type;location;lat;lon;timestamp;P1;durP1;ratioP1;P2;durP2;ratioP2
63965;SDS011;50151;52.030;5.350;2023-02-05T10:35:16;19.25;;;2.92;;
63965;SDS011;50151;52.030;5.350;2023-02-05T10:37:50;14.77;;;2.60;;
63965;SDS011;50151;52.030;5.350;2023-02-05T10:40:26;27.35;;;3.47;;
63965;SDS011;50151;52.030;5.350;2023-02-05T10:45:27;21.17;;;2.22;;
63965;SDS011;50151;52.030;5.350;2023-02-05T10:48:07;26.35;;;3.90;;
63965;SDS011;50151;52.030;5.350;2023-02-05T10:50:56;23.48;;;3.35;;
63965;SDS011;50151;52.030;5.350;2023-02-05T10:53:27;18.08;;;2.78;;
63965;SDS011;50151;52.030;5.350;2023-02-05T10:55:56;22.88;;;3.03;;
63965;SDS011;50151;52.030;5.350;2023-02-05T10:58:42;24.65;;;3.47;;
63965;SDS011;50151;52.030;5.350;2023-02-05T11:06:35;23.92;;;2.80;;
63965;SDS011;50151;52.030;5.350;2023-02-05T11:11:50;39.97;;;3.65;;
63965;SDS011;50151;52.030;5.350;2023-02-05T11:14:35;11.93;;;2.20;;
63965;SDS011;50151;52.030;5.350;2023-02-05T11:17:08;13.63;;;2.60;;
63965;SDS011;50151;52.030;5.350;2023-02-05T11:19:50;21.90;;;3.40;;
63965;SDS011;50151;52.030;5.350;2023-02-05T11:22:41;17.45;;;2.42;;
63965;SDS011;50151;52.030;5.350;2023-02-05T11:27:51;11.65;;;2.03;;
63965;SDS011;50151;52.030;5.350;2023-02-05T11:30:33;23.33;;;3.45;;
63965;SDS011;50151;52.030;5.350;2023-02-05T11:35:55;23.58;;;2.92;;
63965;SDS011;50151;52.030;5.350;2023-02-05T11:38:42;27.63;;;4.18;;
63965;SDS011;50151;52.030;5.350;2023-02-05T11:41:12;21.73;;;2.50;;
63965;SDS011;50151;52.030;5.350;2023-02-05T11:43:52;15.05;;;2.47;;
63965;SDS011;50151;52.030;5.350;2023-02-05T11:46:21;19.63;;;2.80;;
63965;SDS011;50151;52.030;5.350;2023-02-05T11:49:02;19.02;;;2.85;;
63965;SDS011;50151;52.030;5.350;2023-02-05T11:51:40;22.92;;;3.28;;
63965;SDS011;50151;52.030;5.350;2023-02-05T11:54:16;11.77;;;2.28;;
63965;SDS011;50151;52.030;5.350;2023-02-05T11:56:58;25.63;;;3.25;;
63965;SDS011;50151;52.030;5.350;2023-02-05T11:59:27;27.13;;;3.95;;
63965;SDS011;50151;52.030;5.350;2023-02-05T12:01:53;23.67;;;2.78;;
63965;SDS011;50151;52.030;5.350;2023-02-05T12:04:22;20.52;;;3.05;;
63965;SDS011;50151;52.030;5.350;2023-02-05T12:06:52;21.00;;;3.15;;
63965;SDS011;50151;52.030;5.350;2023-02-05T12:09:23;17.95;;;2.05;;
63965;SDS011;50151;52.030;5.350;2023-02-05T12:14:43;19.17;;;2.55;;
63965;SDS011;50151;52.030;5.350;2023-02-05T12:17:30;12.75;;;2.60;;
63965;SDS011;50151;52.030;5.350;2023-02-05T12:25:27;26.98;;;3.33;;
63965;SDS011;50151;52.030;5.350;2023-02-05T12:28:07;17.27;;;2.22;;
63965;SDS011;50151;52.030;5.350;2023-02-05T12:33:50;23.30;;;3.80;;
63965;SDS011;50151;52.030;5.350;2023-02-05T12:39:46;28.77;;;3.40;;
63965;SDS011;50151;52.030;5.350;2023-02-05T12:42:23;29.60;;;3.53;;
63965;SDS011;50151;52.030;5.350;2023-02-05T12:50:00;17.38;;;3.17;;
63965;SDS011;50151;52.030;5.350;2023-02-05T12:58:33;23.52;;;2.80;;
63965;SDS011;50151;52.030;5.350;2023-02-05T13:01:10;21.05;;;3.10;;
63965;SDS011;50151;52.030;5.350;2023-02-05T13:03:42;14.88;;;2.83;;
63965;SDS011;50151;52.030;5.350;2023-02-05T13:08:59;25.60;;;3.58;;
63965;SDS011;50151;52.030;5.350;2023-02-05T13:11:32;16.43;;;2.53;;
63965;SDS011;50151;52.030;5.350;2023-02-05T13:14:13;18.50;;;3.00;;
63965;SDS011;50151;52.030;5.350;2023-02-05T13:16:51;18.85;;;3.05;;
63965;SDS011;50151;52.030;5.350;2023-02-05T13:19:26;21.58;;;3.13;;
63965;SDS011;50151;52.030;5.350;2023-02-05T13:22:06;18.30;;;2.72;;
63965;SDS011;50151;52.030;5.350;2023-02-05T13:24:59;27.15;;;3.50;;
63965;SDS011;50151;52.030;5.350;2023-02-05T13:28:05;20.23;;;3.63;;
63965;SDS011;50151;52.030;5.350;2023-02-05T13:31:08;19.77;;;3.35;;
63965;SDS011;50151;52.030;5.350;2023-02-05T13:33:53;22.90;;;3.25;;
63965;SDS011;50151;52.030;5.350;2023-02-05T13:36:27;25.63;;;3.58;;
63965;SDS011;50151;52.030;5.350;2023-02-05T13:45:14;20.90;;;3.22;;
63965;SDS011;50151;52.030;5.350;2023-02-05T13:48:08;23.10;;;3.40;;
63965;SDS011;50151;52.030;5.350;2023-02-05T13:50:58;18.02;;;2.80;;
63965;SDS011;50151;52.030;5.350;2023-02-05T13:56:49;28.50;;;3.33;;
63965;SDS011;50151;52.030;5.350;2023-02-05T14:02:03;21.63;;;3.50;;
63965;SDS011;50151;52.030;5.350;2023-02-05T14:04:54;19.70;;;2.50;;
63965;SDS011;50151;52.030;5.350;2023-02-05T14:09:55;29.45;;;3.22;;
63965;SDS011;50151;52.030;5.350;2023-02-05T14:12:29;20.30;;;3.35;;
63965;SDS011;50151;52.030;5.350;2023-02-05T14:22:50;25.10;;;3.00;;
63965;SDS011;50151;52.030;5.350;2023-02-05T14:28:01;16.35;;;3.13;;
63965;SDS011;50151;52.030;5.350;2023-02-05T14:32:56;21.52;;;2.88;;
63965;SDS011;50151;52.030;5.350;2023-02-05T14:35:29;25.40;;;3.67;;
63965;SDS011;50151;52.030;5.350;2023-02-05T14:38:22;21.83;;;3.83;;
63965;SDS011;50151;52.030;5.350;2023-02-05T14:41:00;23.58;;;2.15;;
63965;SDS011;50151;52.030;5.350;2023-02-05T14:43:32;21.02;;;2.92;;
63965;SDS011;50151;52.030;5.350;2023-02-05T14:46:03;18.05;;;3.00;;
63965;SDS011;50151;52.030;5.350;2023-02-05T14:48:49;23.77;;;3.65;;
63965;SDS011;50151;52.030;5.350;2023-02-05T14:51:24;26.90;;;4.35;;
63965;SDS011;50151;52.030;5.350;2023-02-05T14:54:02;25.73;;;3.63;;
63965;SDS011;50151;52.030;5.350;2023-02-05T14:56:30;19.08;;;3.45;;
63965;SDS011;50151;52.030;5.350;2023-02-05T15:01:56;24.88;;;3.75;;
63965;SDS011;50151;52.030;5.350;2023-02-05T15:04:30;30.00;;;3.95;;
63965;SDS011;50151;52.030;5.350;2023-02-05T15:07:12;22.73;;;3.92;;
63965;SDS011;50151;52.030;5.350;2023-02-05T15:09:43;31.50;;;4.38;;
63965;SDS011;50151;52.030;5.350;2023-02-05T15:12:31;33.83;;;4.85;;
63965;SDS011;50151;52.030;5.350;2023-02-05T15:15:22;32.15;;;4.28;;
63965;SDS011;50151;52.030;5.350;2023-02-05T15:17:55;23.88;;;4.03;;
63965;SDS011;50151;52.030;5.350;2023-02-05T15:20:29;23.02;;;4.18;;
63965;SDS011;50151;52.030;5.350;2023-02-05T15:23:00;31.30;;;4.00;;
63965;SDS011;50151;52.030;5.350;2023-02-05T15:25:31;25.63;;;3.90;;
63965;SDS011;50151;52.030;5.350;2023-02-05T15:28:15;22.00;;;3.63;;
63965;SDS011;50151;52.030;5.350;2023-02-05T15:30:52;28.15;;;3.83;;
63965;SDS011;50151;52.030;5.350;2023-02-05T15:33:51;28.38;;;4.30;;
63965;SDS011;50151;52.030;5.350;2023-02-05T15:36:34;26.90;;;3.65;;
63965;SDS011;50151;52.030;5.350;2023-02-05T15:41:45;25.77;;;4.18;;
63965;SDS011;50151;52.030;5.350;2023-02-05T15:44:20;27.00;;;4.38;;
63965;SDS011;50151;52.030;5.350;2023-02-05T15:47:00;32.38;;;4.05;;
63965;SDS011;50151;52.030;5.350;2023-02-05T15:49:51;36.67;;;4.88;;
63965;SDS011;50151;52.030;5.350;2023-02-05T15:52:22;21.98;;;3.63;;
63965;SDS011;50151;52.030;5.350;2023-02-05T15:54:52;30.52;;;4.18;;
63965;SDS011;50151;52.030;5.350;2023-02-05T15:57:26;36.70;;;4.22;;
63965;SDS011;50151;52.030;5.350;2023-02-05T15:59:55;27.05;;;4.70;;
63965;SDS011;50151;52.030;5.350;2023-02-05T16:02:27;31.38;;;4.80;;
63965;SDS011;50151;52.030;5.350;2023-02-05T16:04:56;34.83;;;3.80;;
63965;SDS011;50151;52.030;5.350;2023-02-05T16:07:42;30.60;;;3.83;;
63965;SDS011;50151;52.030;5.350;2023-02-05T16:15:29;28.88;;;4.93;;
63965;SDS011;50151;52.030;5.350;2023-02-05T16:18:00;24.40;;;3.25;;
63965;SDS011;50151;52.030;5.350;2023-02-05T16:20:30;29.02;;;3.92;;
63965;SDS011;50151;52.030;5.350;2023-02-05T16:23:01;34.60;;;4.68;;
63965;SDS011;50151;52.030;5.350;2023-02-05T16:25:54;32.00;;;4.93;;
63965;SDS011;50151;52.030;5.350;2023-02-05T16:28:25;31.25;;;4.32;;
63965;SDS011;50151;52.030;5.350;2023-02-05T16:31:02;30.00;;;4.28;;
63965;SDS011;50151;52.030;5.350;2023-02-05T16:36:01;30.38;;;4.07;;
63965;SDS011;50151;52.030;5.350;2023-02-05T16:38:31;23.48;;;4.03;;
63965;SDS011;50151;52.030;5.350;2023-02-05T16:41:15;23.90;;;4.78;;
63965;SDS011;50151;52.030;5.350;2023-02-05T16:43:42;28.90;;;4.32;;
63965;SDS011;50151;52.030;5.350;2023-02-05T16:51:34;27.05;;;5.35;;
63965;SDS011;50151;52.030;5.350;2023-02-05T16:56:38;29.25;;;4.18;;
63965;SDS011;50151;52.030;5.350;2023-02-05T16:59:18;23.35;;;3.80;;
63965;SDS011;50151;52.030;5.350;2023-02-05T17:01:49;31.13;;;4.82;;
63965;SDS011;50151;52.030;5.350;2023-02-05T17:04:20;26.50;;;4.22;;
63965;SDS011;50151;52.030;5.350;2023-02-05T17:06:55;33.15;;;4.00;;
63965;SDS011;50151;52.030;5.350;2023-02-05T17:09:34;33.50;;;5.10;;
63965;SDS011;50151;52.030;5.350;2023-02-05T17:14:52;31.65;;;4.25;;
63965;SDS011;50151;52.030;5.350;2023-02-05T17:17:29;35.03;;;4.55;;
63965;SDS011;50151;52.030;5.350;2023-02-05T17:28:26;32.30;;;5.15;;
63965;SDS011;50151;52.030;5.350;2023-02-05T17:30:55;25.33;;;4.13;;
63965;SDS011;50151;52.030;5.350;2023-02-05T17:33:26;32.10;;;5.10;;
63965;SDS011;50151;52.030;5.350;2023-02-05T17:35:54;32.50;;;3.97;;
63965;SDS011;50151;52.030;5.350;2023-02-05T17:38:21;33.42;;;4.05;;
63965;SDS011;50151;52.030;5.350;2023-02-05T17:40:51;22.90;;;4.82;;
63965;SDS011;50151;52.030;5.350;2023-02-05T17:43:37;31.67;;;4.85;;
63965;SDS011;50151;52.030;5.350;2023-02-05T17:46:08;40.40;;;5.40;;
63965;SDS011;50151;52.030;5.350;2023-02-05T17:48:39;30.42;;;4.80;;
63965;SDS011;50151;52.030;5.350;2023-02-05T17:51:09;38.20;;;5.13;;
63965;SDS011;50151;52.030;5.350;2023-02-05T17:53:44;33.50;;;5.50;;
63965;SDS011;50151;52.030;5.350;2023-02-05T17:56:12;16.77;;;3.53;;
63965;SDS011;50151;52.030;5.350;2023-02-05T17:58:39;24.75;;;4.38;;
63965;SDS011;50151;52.030;5.350;2023-02-05T18:01:06;38.22;;;5.05;;
63965;SDS011;50151;52.030;5.350;2023-02-05T18:03:37;35.72;;;4.55;;
63965;SDS011;50151;52.030;5.350;2023-02-05T18:06:04;30.48;;;4.80;;
63965;SDS011;50151;52.030;5.350;2023-02-05T18:08:31;34.17;;;4.95;;
63965;SDS011;50151;52.030;5.350;2023-02-05T18:11:01;31.80;;;4.45;;
63965;SDS011;50151;52.030;5.350;2023-02-05T18:13:28;25.42;;;4.00;;
63965;SDS011;50151;52.030;5.350;2023-02-05T18:15:55;23.90;;;4.13;;
63965;SDS011;50151;52.030;5.350;2023-02-05T18:18:26;31.30;;;4.20;;
63965;SDS011;50151;52.030;5.350;2023-02-05T18:20:54;30.65;;;4.47;;
63965;SDS011;50151;52.030;5.350;2023-02-05T18:23:20;32.38;;;4.15;;
63965;SDS011;50151;52.030;5.350;2023-02-05T18:25:55;36.80;;;4.63;;
63965;SDS011;50151;52.030;5.350;2023-02-05T18:28:25;40.97;;;5.03;;
63965;SDS011;50151;52.030;5.350;2023-02-05T18:30:56;27.88;;;3.67;;
63965;SDS011;50151;52.030;5.350;2023-02-05T18:33:24;36.75;;;4.28;;
63965;SDS011;50151;52.030;5.350;2023-02-05T18:35:51;25.23;;;3.92;;
63965;SDS011;50151;52.030;5.350;2023-02-05T18:38:19;36.45;;;4.60;;
63965;SDS011;50151;52.030;5.350;2023-02-05T18:40:46;30.92;;;4.63;;
63965;SDS011;50151;52.030;5.350;2023-02-05T18:43:13;24.13;;;4.28;;
63965;SDS011;50151;52.030;5.350;2023-02-05T18:45:40;30.52;;;5.13;;
63965;SDS011;50151;52.030;5.350;2023-02-05T18:48:07;32.65;;;5.28;;
63965;SDS011;50151;52.030;5.350;2023-02-05T18:50:33;35.83;;;4.68;;
63965;SDS011;50151;52.030;5.350;2023-02-05T18:53:00;36.10;;;5.07;;
63965;SDS011;50151;52.030;5.350;2023-02-05T18:55:27;35.95;;;4.82;;
63965;SDS011;50151;52.030;5.350;2023-02-05T18:58:00;32.13;;;4.70;;
63965;SDS011;50151;52.030;5.350;2023-02-05T19:00:27;35.55;;;4.57;;
63965;SDS011;50151;52.030;5.350;2023-02-05T19:02:54;37.80;;;5.93;;
63965;SDS011;50151;52.030;5.350;2023-02-05T19:05:21;31.67;;;4.97;;
63965;SDS011;50151;52.030;5.350;2023-02-05T19:07:48;25.98;;;4.55;;
63965;SDS011;50151;52.030;5.350;2023-02-05T19:10:16;27.33;;;5.10;;
63965;SDS011;50151;52.030;5.350;2023-02-05T19:12:43;34.05;;;6.05;;
63965;SDS011;50151;52.030;5.350;2023-02-05T19:15:10;27.10;;;4.32;;
63965;SDS011;50151;52.030;5.350;2023-02-05T19:17:36;27.50;;;4.93;;
63965;SDS011;50151;52.030;5.350;2023-02-05T19:20:03;35.22;;;4.72;;
63965;SDS011;50151;52.030;5.350;2023-02-05T19:22:31;41.50;;;4.97;;
63965;SDS011;50151;52.030;5.350;2023-02-05T19:24:57;37.20;;;5.55;;
63965;SDS011;50151;52.030;5.350;2023-02-05T19:27:24;35.28;;;4.50;;
63965;SDS011;50151;52.030;5.350;2023-02-05T19:29:51;25.90;;;3.90;;
63965;SDS011;50151;52.030;5.350;2023-02-05T19:32:17;29.02;;;4.30;;
63965;SDS011;50151;52.030;5.350;2023-02-05T19:34:44;33.90;;;4.88;;
63965;SDS011;50151;52.030;5.350;2023-02-05T19:37:12;26.63;;;4.53;;
63965;SDS011;50151;52.030;5.350;2023-02-05T19:39:43;34.75;;;5.65;;
63965;SDS011;50151;52.030;5.350;2023-02-05T19:42:12;29.48;;;4.93;;
63965;SDS011;50151;52.030;5.350;2023-02-05T19:44:38;32.15;;;5.10;;
63965;SDS011;50151;52.030;5.350;2023-02-05T19:47:06;32.42;;;4.95;;
63965;SDS011;50151;52.030;5.350;2023-02-05T19:49:36;30.08;;;5.03;;
63965;SDS011;50151;52.030;5.350;2023-02-05T19:52:02;34.15;;;5.22;;
63965;SDS011;50151;52.030;5.350;2023-02-05T19:54:30;31.50;;;5.03;;
63965;SDS011;50151;52.030;5.350;2023-02-05T19:56:57;36.47;;;5.65;;
63965;SDS011;50151;52.030;5.350;2023-02-05T19:59:23;36.05;;;5.78;;
63965;SDS011;50151;52.030;5.350;2023-02-05T20:01:50;22.02;;;4.38;;
63965;SDS011;50151;52.030;5.350;2023-02-05T20:04:20;34.63;;;5.53;;
63965;SDS011;50151;52.030;5.350;2023-02-05T20:06:53;29.70;;;4.75;;
63965;SDS011;50151;52.030;5.350;2023-02-05T20:09:21;31.75;;;5.15;;
63965;SDS011;50151;52.030;5.350;2023-02-05T20:11:50;25.88;;;5.22;;
63965;SDS011;50151;52.030;5.350;2023-02-05T20:14:20;31.50;;;4.45;;
63965;SDS011;50151;52.030;5.350;2023-02-05T20:16:47;27.40;;;4.45;;
63965;SDS011;50151;52.030;5.350;2023-02-05T20:19:15;30.05;;;4.55;;
63965;SDS011;50151;52.030;5.350;2023-02-05T20:21:43;38.17;;;10.07;;
63965;SDS011;50151;52.030;5.350;2023-02-05T20:24:10;35.10;;;7.47;;
63965;SDS011;50151;52.030;5.350;2023-02-05T20:26:38;30.45;;;5.25;;
63965;SDS011;50151;52.030;5.350;2023-02-05T20:29:05;39.03;;;5.10;;
63965;SDS011;50151;52.030;5.350;2023-02-05T20:31:51;36.85;;;5.25;;
63965;SDS011;50151;52.030;5.350;2023-02-05T20:34:19;38.85;;;7.30;;
63965;SDS011;50151;52.030;5.350;2023-02-05T20:36:49;43.85;;;8.02;;
63965;SDS011;50151;52.030;5.350;2023-02-05T20:39:21;36.78;;;6.45;;
63965;SDS011;50151;52.030;5.350;2023-02-05T20:41:50;36.05;;;5.60;;
63965;SDS011;50151;52.030;5.350;2023-02-05T20:44:17;25.13;;;4.30;;
63965;SDS011;50151;52.030;5.350;2023-02-05T20:46:44;35.90;;;4.25;;
63965;SDS011;50151;52.030;5.350;2023-02-05T20:49:12;31.75;;;4.18;;
63965;SDS011;50151;52.030;5.350;2023-02-05T20:51:39;42.58;;;7.80;;
63965;SDS011;50151;52.030;5.350;2023-02-05T20:54:06;31.27;;;5.97;;
63965;SDS011;50151;52.030;5.350;2023-02-05T20:56:33;32.00;;;4.15;;
63965;SDS011;50151;52.030;5.350;2023-02-05T20:59:01;33.22;;;4.38;;
63965;SDS011;50151;52.030;5.350;2023-02-05T21:01:30;38.88;;;4.50;;
63965;SDS011;50151;52.030;5.350;2023-02-05T21:03:59;36.45;;;4.88;;
63965;SDS011;50151;52.030;5.350;2023-02-05T21:06:28;24.52;;;4.45;;
63965;SDS011;50151;52.030;5.350;2023-02-05T21:08:57;29.25;;;3.83;;
63965;SDS011;50151;52.030;5.350;2023-02-05T21:11:25;26.98;;;4.35;;
63965;SDS011;50151;52.030;5.350;2023-02-05T21:13:53;25.67;;;3.22;;
63965;SDS011;50151;52.030;5.350;2023-02-05T21:16:21;34.08;;;3.72;;
63965;SDS011;50151;52.030;5.350;2023-02-05T21:18:49;31.77;;;4.50;;
63965;SDS011;50151;52.030;5.350;2023-02-05T21:21:17;25.40;;;4.20;;
63965;SDS011;50151;52.030;5.350;2023-02-05T21:23:46;39.67;;;4.20;;
63965;SDS011;50151;52.030;5.350;2023-02-05T21:26:17;28.08;;;4.20;;
63965;SDS011;50151;52.030;5.350;2023-02-05T21:28:45;21.98;;;3.33;;
63965;SDS011;50151;52.030;5.350;2023-02-05T21:31:12;28.27;;;3.53;;
63965;SDS011;50151;52.030;5.350;2023-02-05T21:33:39;23.55;;;3.65;;
63965;SDS011;50151;52.030;5.350;2023-02-05T21:36:06;27.17;;;3.13;;
63965;SDS011;50151;52.030;5.350;2023-02-05T21:38:38;26.52;;;3.40;;
63965;SDS011;50151;52.030;5.350;2023-02-05T21:41:10;34.80;;;3.88;;
63965;SDS011;50151;52.030;5.350;2023-02-05T21:43:39;26.70;;;3.50;;
63965;SDS011;50151;52.030;5.350;2023-02-05T21:46:07;23.75;;;3.67;;
63965;SDS011;50151;52.030;5.350;2023-02-05T21:48:36;26.77;;;3.83;;
63965;SDS011;50151;52.030;5.350;2023-02-05T21:51:04;27.25;;;4.03;;
63965;SDS011;50151;52.030;5.350;2023-02-05T21:53:32;21.00;;;3.47;;
63965;SDS011;50151;52.030;5.350;2023-02-05T21:56:00;30.25;;;3.45;;
